Terminal Aerodrome Forecast
Issued by NWS

Home | Current Version | Previous Version | Text Only | Print | Product List | Glossary On
Versions: 1 2 3 4 5 6 7 8 9 10 11 12 13 14 15
000
FTUS44 KCRP 010500
TAFLRD
TAF
KLRD 010531Z 0106/0206 15012KT P6SM SKC
     FM010900 14009KT P6SM SCT017
      TEMPO 0109/0113 BKN017
     FM011600 17012KT P6SM SCT040
     FM011900 15014KT P6SM SCT070
     FM020100 13015KT P6SM SCT250=

USA.gov is the U.S. government's official web portal to all federal, state and local government web resources and services.